sensor_id;sensor_type;location;lat;lon;timestamp;P1;durP1;ratioP1;P2;durP2;ratioP2
33413;SDS011;60055;41.884;12.534;2024-01-06T00:00:28;21.58;;;5.20;;
33413;SDS011;60055;41.884;12.534;2024-01-06T00:02:53;23.50;;;5.68;;
33413;SDS011;60055;41.884;12.534;2024-01-06T00:05:18;22.50;;;5.43;;
33413;SDS011;60055;41.884;12.534;2024-01-06T00:07:44;19.05;;;5.20;;
33413;SDS011;60055;41.884;12.534;2024-01-06T00:10:09;20.42;;;5.55;;
33413;SDS011;60055;41.884;12.534;2024-01-06T00:12:35;20.65;;;5.30;;
33413;SDS011;60055;41.884;12.534;2024-01-06T00:15:00;26.85;;;5.68;;
33413;SDS011;60055;41.884;12.534;2024-01-06T00:17:26;25.83;;;5.50;;
33413;SDS011;60055;41.884;12.534;2024-01-06T00:19:51;28.35;;;5.95;;
33413;SDS011;60055;41.884;12.534;2024-01-06T00:22:19;24.00;;;5.90;;
33413;SDS011;60055;41.884;12.534;2024-01-06T00:24:45;26.17;;;5.88;;
33413;SDS011;60055;41.884;12.534;2024-01-06T00:27:10;22.70;;;5.30;;
33413;SDS011;60055;41.884;12.534;2024-01-06T00:29:36;28.02;;;5.07;;
33413;SDS011;60055;41.884;12.534;2024-01-06T00:32:02;25.83;;;5.57;;
33413;SDS011;60055;41.884;12.534;2024-01-06T00:34:27;24.52;;;5.68;;
33413;SDS011;60055;41.884;12.534;2024-01-06T00:36:53;31.90;;;6.72;;
33413;SDS011;60055;41.884;12.534;2024-01-06T00:39:19;22.20;;;5.72;;
33413;SDS011;60055;41.884;12.534;2024-01-06T00:41:45;28.05;;;6.35;;
33413;SDS011;60055;41.884;12.534;2024-01-06T00:44:11;24.92;;;5.75;;
33413;SDS011;60055;41.884;12.534;2024-01-06T00:46:36;36.72;;;6.18;;
33413;SDS011;60055;41.884;12.534;2024-01-06T00:49:03;25.30;;;6.13;;
33413;SDS011;60055;41.884;12.534;2024-01-06T00:51:28;29.67;;;6.10;;
33413;SDS011;60055;41.884;12.534;2024-01-06T00:53:54;36.75;;;8.50;;
33413;SDS011;60055;41.884;12.534;2024-01-06T00:56:20;29.85;;;5.97;;
33413;SDS011;60055;41.884;12.534;2024-01-06T00:58:45;33.17;;;6.30;;
33413;SDS011;60055;41.884;12.534;2024-01-06T01:01:11;30.38;;;6.38;;
33413;SDS011;60055;41.884;12.534;2024-01-06T01:03:36;31.50;;;6.22;;
33413;SDS011;60055;41.884;12.534;2024-01-06T01:06:01;34.30;;;6.35;;
33413;SDS011;60055;41.884;12.534;2024-01-06T01:08:27;34.50;;;7.57;;
33413;SDS011;60055;41.884;12.534;2024-01-06T01:10:55;35.45;;;6.32;;
33413;SDS011;60055;41.884;12.534;2024-01-06T01:13:22;34.20;;;6.65;;
33413;SDS011;60055;41.884;12.534;2024-01-06T01:15:47;36.90;;;6.32;;
33413;SDS011;60055;41.884;12.534;2024-01-06T01:18:13;36.08;;;6.70;;
33413;SDS011;60055;41.884;12.534;2024-01-06T01:20:39;43.50;;;6.85;;
33413;SDS011;60055;41.884;12.534;2024-01-06T01:23:06;37.50;;;6.93;;
33413;SDS011;60055;41.884;12.534;2024-01-06T01:25:32;39.88;;;6.72;;
33413;SDS011;60055;41.884;12.534;2024-01-06T01:27:57;39.67;;;6.18;;
33413;SDS011;60055;41.884;12.534;2024-01-06T01:30:23;38.25;;;6.60;;
33413;SDS011;60055;41.884;12.534;2024-01-06T01:32:48;40.38;;;6.97;;
33413;SDS011;60055;41.884;12.534;2024-01-06T01:35:14;31.88;;;6.43;;
33413;SDS011;60055;41.884;12.534;2024-01-06T01:37:39;33.08;;;6.95;;
33413;SDS011;60055;41.884;12.534;2024-01-06T01:40:05;34.53;;;7.38;;
33413;SDS011;60055;41.884;12.534;2024-01-06T01:42:31;33.10;;;6.85;;
33413;SDS011;60055;41.884;12.534;2024-01-06T01:44:56;36.97;;;8.27;;
33413;SDS011;60055;41.884;12.534;2024-01-06T01:47:21;32.92;;;6.63;;
33413;SDS011;60055;41.884;12.534;2024-01-06T01:49:47;38.10;;;7.13;;
33413;SDS011;60055;41.884;12.534;2024-01-06T01:52:13;40.70;;;7.78;;
33413;SDS011;60055;41.884;12.534;2024-01-06T01:54:40;30.02;;;7.68;;
33413;SDS011;60055;41.884;12.534;2024-01-06T01:57:07;41.63;;;7.55;;
33413;SDS011;60055;41.884;12.534;2024-01-06T01:59:32;30.00;;;6.57;;
33413;SDS011;60055;41.884;12.534;2024-01-06T02:01:59;26.95;;;6.43;;
33413;SDS011;60055;41.884;12.534;2024-01-06T02:04:25;32.55;;;6.90;;
33413;SDS011;60055;41.884;12.534;2024-01-06T02:06:51;30.52;;;6.50;;
33413;SDS011;60055;41.884;12.534;2024-01-06T02:09:16;30.38;;;6.65;;
33413;SDS011;60055;41.884;12.534;2024-01-06T02:11:41;26.25;;;6.38;;
33413;SDS011;60055;41.884;12.534;2024-01-06T02:14:07;30.77;;;7.55;;
33413;SDS011;60055;41.884;12.534;2024-01-06T02:16:32;30.50;;;7.40;;
33413;SDS011;60055;41.884;12.534;2024-01-06T02:18:58;34.70;;;7.22;;
33413;SDS011;60055;41.884;12.534;2024-01-06T02:21:23;26.63;;;6.07;;
33413;SDS011;60055;41.884;12.534;2024-01-06T02:23:49;33.72;;;7.75;;
33413;SDS011;60055;41.884;12.534;2024-01-06T02:26:14;34.83;;;6.97;;
33413;SDS011;60055;41.884;12.534;2024-01-06T02:28:41;26.83;;;6.97;;
33413;SDS011;60055;41.884;12.534;2024-01-06T02:31:09;31.55;;;6.65;;
33413;SDS011;60055;41.884;12.534;2024-01-06T02:33:35;31.75;;;6.88;;
33413;SDS011;60055;41.884;12.534;2024-01-06T02:36:01;28.95;;;6.32;;
33413;SDS011;60055;41.884;12.534;2024-01-06T02:38:26;31.13;;;5.90;;
33413;SDS011;60055;41.884;12.534;2024-01-06T02:40:51;35.47;;;7.22;;
33413;SDS011;60055;41.884;12.534;2024-01-06T02:43:17;29.02;;;6.53;;
33413;SDS011;60055;41.884;12.534;2024-01-06T02:45:42;32.50;;;7.25;;
33413;SDS011;60055;41.884;12.534;2024-01-06T02:48:08;36.33;;;6.97;;
33413;SDS011;60055;41.884;12.534;2024-01-06T02:50:33;32.42;;;6.32;;
33413;SDS011;60055;41.884;12.534;2024-01-06T02:52:58;31.25;;;6.68;;
33413;SDS011;60055;41.884;12.534;2024-01-06T02:55:24;31.90;;;7.43;;
33413;SDS011;60055;41.884;12.534;2024-01-06T02:57:49;39.13;;;7.15;;
33413;SDS011;60055;41.884;12.534;2024-01-06T03:00:15;39.75;;;6.60;;
33413;SDS011;60055;41.884;12.534;2024-01-06T03:02:40;31.30;;;6.13;;
33413;SDS011;60055;41.884;12.534;2024-01-06T03:05:08;32.38;;;7.05;;
33413;SDS011;60055;41.884;12.534;2024-01-06T03:07:34;31.95;;;6.65;;
33413;SDS011;60055;41.884;12.534;2024-01-06T03:09:59;30.52;;;6.97;;
33413;SDS011;60055;41.884;12.534;2024-01-06T03:12:25;28.52;;;6.20;;
33413;SDS011;60055;41.884;12.534;2024-01-06T03:14:50;31.75;;;6.32;;
33413;SDS011;60055;41.884;12.534;2024-01-06T03:17:16;32.47;;;6.35;;
33413;SDS011;60055;41.884;12.534;2024-01-06T03:19:42;25.42;;;6.47;;
33413;SDS011;60055;41.884;12.534;2024-01-06T03:22:07;29.67;;;6.30;;
33413;SDS011;60055;41.884;12.534;2024-01-06T03:24:33;24.42;;;5.78;;
33413;SDS011;60055;41.884;12.534;2024-01-06T03:26:58;27.55;;;5.57;;
33413;SDS011;60055;41.884;12.534;2024-01-06T03:29:24;27.85;;;5.88;;
33413;SDS011;60055;41.884;12.534;2024-01-06T03:31:49;19.95;;;4.75;;
33413;SDS011;60055;41.884;12.534;2024-01-06T03:34:14;25.48;;;5.55;;
33413;SDS011;60055;41.884;12.534;2024-01-06T03:36:40;26.70;;;5.45;;
33413;SDS011;60055;41.884;12.534;2024-01-06T03:39:06;26.60;;;5.38;;
33413;SDS011;60055;41.884;12.534;2024-01-06T03:41:32;24.00;;;5.00;;
33413;SDS011;60055;41.884;12.534;2024-01-06T03:43:57;24.77;;;5.18;;
33413;SDS011;60055;41.884;12.534;2024-01-06T03:46:23;21.75;;;4.97;;
33413;SDS011;60055;41.884;12.534;2024-01-06T03:48:49;23.60;;;4.80;;
33413;SDS011;60055;41.884;12.534;2024-01-06T03:51:14;23.17;;;5.00;;
33413;SDS011;60055;41.884;12.534;2024-01-06T03:53:40;25.30;;;5.55;;
33413;SDS011;60055;41.884;12.534;2024-01-06T03:56:06;26.40;;;4.75;;
33413;SDS011;60055;41.884;12.534;2024-01-06T03:58:31;17.35;;;4.38;;
33413;SDS011;60055;41.884;12.534;2024-01-06T04:00:57;16.23;;;4.20;;
33413;SDS011;60055;41.884;12.534;2024-01-06T04:03:22;16.50;;;4.10;;
33413;SDS011;60055;41.884;12.534;2024-01-06T04:05:48;15.98;;;4.55;;
33413;SDS011;60055;41.884;12.534;2024-01-06T04:08:14;18.40;;;4.60;;
33413;SDS011;60055;41.884;12.534;2024-01-06T04:10:39;15.27;;;4.00;;
33413;SDS011;60055;41.884;12.534;2024-01-06T04:13:06;15.35;;;3.63;;
33413;SDS011;60055;41.884;12.534;2024-01-06T04:15:40;13.80;;;3.85;;
33413;SDS011;60055;41.884;12.534;2024-01-06T04:18:06;12.38;;;3.50;;
33413;SDS011;60055;41.884;12.534;2024-01-06T04:20:32;9.45;;;2.95;;
33413;SDS011;60055;41.884;12.534;2024-01-06T04:22:58;14.70;;;4.00;;
33413;SDS011;60055;41.884;12.534;2024-01-06T04:25:23;13.25;;;3.28;;
33413;SDS011;60055;41.884;12.534;2024-01-06T04:27:49;13.50;;;3.70;;
33413;SDS011;60055;41.884;12.534;2024-01-06T04:30:15;19.05;;;3.83;;
33413;SDS011;60055;41.884;12.534;2024-01-06T04:32:41;13.65;;;3.53;;
33413;SDS011;60055;41.884;12.534;2024-01-06T04:35:07;17.85;;;3.30;;
33413;SDS011;60055;41.884;12.534;2024-01-06T04:37:32;18.70;;;4.00;;
33413;SDS011;60055;41.884;12.534;2024-01-06T04:39:58;13.70;;;3.70;;
33413;SDS011;60055;41.884;12.534;2024-01-06T04:42:24;15.55;;;3.72;;
33413;SDS011;60055;41.884;12.534;2024-01-06T04:44:50;17.92;;;4.10;;
33413;SDS011;60055;41.884;12.534;2024-01-06T04:47:15;20.60;;;4.07;;
33413;SDS011;60055;41.884;12.534;2024-01-06T04:49:41;16.35;;;3.80;;
33413;SDS011;60055;41.884;12.534;2024-01-06T04:52:07;14.75;;;4.00;;
33413;SDS011;60055;41.884;12.534;2024-01-06T04:54:32;16.92;;;3.88;;
33413;SDS011;60055;41.884;12.534;2024-01-06T04:56:58;24.92;;;4.15;;
33413;SDS011;60055;41.884;12.534;2024-01-06T04:59:23;14.88;;;3.55;;
33413;SDS011;60055;41.884;12.534;2024-01-06T05:01:50;16.17;;;3.20;;
33413;SDS011;60055;41.884;12.534;2024-01-06T05:04:16;18.88;;;3.67;;
33413;SDS011;60055;41.884;12.534;2024-01-06T05:06:42;15.85;;;3.58;;
33413;SDS011;60055;41.884;12.534;2024-01-06T05:09:07;16.38;;;3.35;;
33413;SDS011;60055;41.884;12.534;2024-01-06T05:11:33;12.82;;;3.17;;
33413;SDS011;60055;41.884;12.534;2024-01-06T05:13:58;14.02;;;4.03;;
33413;SDS011;60055;41.884;12.534;2024-01-06T05:16:24;15.65;;;3.40;;
33413;SDS011;60055;41.884;12.534;2024-01-06T05:18:50;11.48;;;3.17;;
33413;SDS011;60055;41.884;12.534;2024-01-06T05:21:15;12.93;;;3.25;;
33413;SDS011;60055;41.884;12.534;2024-01-06T05:23:41;18.42;;;3.47;;
33413;SDS011;60055;41.884;12.534;2024-01-06T05:26:06;14.15;;;3.15;;
33413;SDS011;60055;41.884;12.534;2024-01-06T05:28:31;18.35;;;3.63;;
33413;SDS011;60055;41.884;12.534;2024-01-06T05:30:57;12.60;;;3.67;;
33413;SDS011;60055;41.884;12.534;2024-01-06T05:33:22;24.73;;;4.40;;
33413;SDS011;60055;41.884;12.534;2024-01-06T05:35:48;26.60;;;4.53;;
33413;SDS011;60055;41.884;12.534;2024-01-06T05:38:14;20.65;;;4.28;;
33413;SDS011;60055;41.884;12.534;2024-01-06T05:40:39;18.70;;;4.13;;
33413;SDS011;60055;41.884;12.534;2024-01-06T05:43:04;19.05;;;3.97;;
33413;SDS011;60055;41.884;12.534;2024-01-06T05:45:30;17.17;;;4.20;;
33413;SDS011;60055;41.884;12.534;2024-01-06T05:47:56;15.88;;;3.20;;
33413;SDS011;60055;41.884;12.534;2024-01-06T05:50:22;17.88;;;3.70;;
33413;SDS011;60055;41.884;12.534;2024-01-06T05:52:47;13.35;;;3.38;;
33413;SDS011;60055;41.884;12.534;2024-01-06T05:55:13;12.27;;;2.92;;
33413;SDS011;60055;41.884;12.534;2024-01-06T05:57:39;11.98;;;2.67;;
33413;SDS011;60055;41.884;12.534;2024-01-06T06:00:07;10.43;;;2.83;;
33413;SDS011;60055;41.884;12.534;2024-01-06T06:02:34;12.38;;;2.80;;
33413;SDS011;60055;41.884;12.534;2024-01-06T06:04:59;12.02;;;2.70;;
33413;SDS011;60055;41.884;12.534;2024-01-06T06:07:25;9.48;;;2.75;;
33413;SDS011;60055;41.884;12.534;2024-01-06T06:09:50;9.85;;;2.55;;
33413;SDS011;60055;41.884;12.534;2024-01-06T06:12:18;9.65;;;2.58;;
33413;SDS011;60055;41.884;12.534;2024-01-06T06:14:43;12.07;;;3.00;;
33413;SDS011;60055;41.884;12.534;2024-01-06T06:17:08;11.65;;;2.65;;
33413;SDS011;60055;41.884;12.534;2024-01-06T06:19:34;10.75;;;2.90;;
33413;SDS011;60055;41.884;12.534;2024-01-06T06:21:59;10.10;;;2.60;;
33413;SDS011;60055;41.884;12.534;2024-01-06T06:24:25;13.10;;;2.95;;
33413;SDS011;60055;41.884;12.534;2024-01-06T06:26:50;13.10;;;3.45;;
33413;SDS011;60055;41.884;12.534;2024-01-06T06:29:16;12.15;;;3.30;;
33413;SDS011;60055;41.884;12.534;2024-01-06T06:31:41;13.02;;;3.65;;
33413;SDS011;60055;41.884;12.534;2024-01-06T06:34:09;11.63;;;3.60;;
33413;SDS011;60055;41.884;12.534;2024-01-06T06:36:35;10.80;;;3.20;;
33413;SDS011;60055;41.884;12.534;2024-01-06T06:39:01;11.30;;;2.95;;
33413;SDS011;60055;41.884;12.534;2024-01-06T06:41:27;9.82;;;3.20;;
33413;SDS011;60055;41.884;12.534;2024-01-06T06:43:52;12.85;;;3.00;;
33413;SDS011;60055;41.884;12.534;2024-01-06T06:46:17;11.63;;;3.17;;
33413;SDS011;60055;41.884;12.534;2024-01-06T06:48:43;16.00;;;3.50;;
33413;SDS011;60055;41.884;12.534;2024-01-06T06:51:08;12.05;;;3.55;;
33413;SDS011;60055;41.884;12.534;2024-01-06T06:53:35;9.20;;;3.13;;
33413;SDS011;60055;41.884;12.534;2024-01-06T06:56:01;10.20;;;2.83;;
33413;SDS011;60055;41.884;12.534;2024-01-06T06:58:26;9.82;;;2.97;;
33413;SDS011;60055;41.884;12.534;2024-01-06T07:00:52;14.07;;;3.25;;
33413;SDS011;60055;41.884;12.534;2024-01-06T07:03:19;13.20;;;3.08;;
33413;SDS011;60055;41.884;12.534;2024-01-06T07:05:44;16.17;;;3.25;;
33413;SDS011;60055;41.884;12.534;2024-01-06T07:08:10;15.50;;;3.45;;
33413;SDS011;60055;41.884;12.534;2024-01-06T07:10:35;19.10;;;3.55;;
33413;SDS011;60055;41.884;12.534;2024-01-06T07:13:01;14.02;;;2.95;;
33413;SDS011;60055;41.884;12.534;2024-01-06T07:15:26;12.73;;;3.28;;
33413;SDS011;60055;41.884;12.534;2024-01-06T07:17:51;15.15;;;3.00;;
33413;SDS011;60055;41.884;12.534;2024-01-06T07:20:17;11.63;;;3.00;;
33413;SDS011;60055;41.884;12.534;2024-01-06T07:22:42;13.02;;;3.40;;
33413;SDS011;60055;41.884;12.534;2024-01-06T07:25:08;12.10;;;2.67;;
33413;SDS011;60055;41.884;12.534;2024-01-06T07:27:34;14.05;;;3.13;;
33413;SDS011;60055;41.884;12.534;2024-01-06T07:29:59;11.27;;;2.70;;
33413;SDS011;60055;41.884;12.534;2024-01-06T07:32:25;15.13;;;3.80;;
33413;SDS011;60055;41.884;12.534;2024-01-06T07:34:50;14.85;;;3.50;;
33413;SDS011;60055;41.884;12.534;2024-01-06T07:37:16;15.27;;;3.58;;
33413;SDS011;60055;41.884;12.534;2024-01-06T07:39:42;13.45;;;3.40;;
33413;SDS011;60055;41.884;12.534;2024-01-06T07:42:08;14.25;;;3.75;;
33413;SDS011;60055;41.884;12.534;2024-01-06T07:44:33;10.77;;;3.20;;
33413;SDS011;60055;41.884;12.534;2024-01-06T07:46:59;16.77;;;3.28;;
33413;SDS011;60055;41.884;12.534;2024-01-06T07:49:24;14.75;;;3.80;;
33413;SDS011;60055;41.884;12.534;2024-01-06T07:51:50;14.95;;;3.47;;
33413;SDS011;60055;41.884;12.534;2024-01-06T07:54:15;13.30;;;3.33;;
33413;SDS011;60055;41.884;12.534;2024-01-06T07:56:40;13.90;;;3.40;;
33413;SDS011;60055;41.884;12.534;2024-01-06T07:59:06;7.75;;;2.70;;
33413;SDS011;60055;41.884;12.534;2024-01-06T08:01:32;9.13;;;2.33;;
33413;SDS011;60055;41.884;12.534;2024-01-06T08:03:58;16.95;;;2.80;;
33413;SDS011;60055;41.884;12.534;2024-01-06T08:06:23;11.43;;;2.53;;
33413;SDS011;60055;41.884;12.534;2024-01-06T08:08:50;11.38;;;2.90;;
33413;SDS011;60055;41.884;12.534;2024-01-06T08:11:15;7.47;;;2.72;;
33413;SDS011;60055;41.884;12.534;2024-01-06T08:13:41;10.25;;;3.00;;
33413;SDS011;60055;41.884;12.534;2024-01-06T08:16:06;10.82;;;3.30;;
33413;SDS011;60055;41.884;12.534;2024-01-06T08:18:32;13.40;;;3.28;;
33413;SDS011;60055;41.884;12.534;2024-01-06T08:20:57;8.57;;;3.20;;
33413;SDS011;60055;41.884;12.534;2024-01-06T08:23:23;11.93;;;3.15;;
33413;SDS011;60055;41.884;12.534;2024-01-06T08:25:48;9.82;;;3.28;;
33413;SDS011;60055;41.884;12.534;2024-01-06T08:28:14;10.57;;;3.70;;
33413;SDS011;60055;41.884;12.534;2024-01-06T08:30:44;7.93;;;3.33;;
33413;SDS011;60055;41.884;12.534;2024-01-06T08:33:09;6.95;;;3.38;;
33413;SDS011;60055;41.884;12.534;2024-01-06T08:35:35;6.93;;;3.35;;
33413;SDS011;60055;41.884;12.534;2024-01-06T08:38:05;8.88;;;3.60;;
33413;SDS011;60055;41.884;12.534;2024-01-06T08:40:33;9.43;;;3.40;;
33413;SDS011;60055;41.884;12.534;2024-01-06T08:43:00;9.27;;;3.97;;
33413;SDS011;60055;41.884;12.534;2024-01-06T08:45:25;13.00;;;4.10;;
33413;SDS011;60055;41.884;12.534;2024-01-06T08:47:50;10.50;;;3.83;;
33413;SDS011;60055;41.884;12.534;2024-01-06T08:50:16;8.65;;;4.07;;
33413;SDS011;60055;41.884;12.534;2024-01-06T08:52:41;10.13;;;3.63;;
33413;SDS011;60055;41.884;12.534;2024-01-06T08:55:07;8.98;;;4.05;;
33413;SDS011;60055;41.884;12.534;2024-01-06T08:57:33;8.18;;;3.88;;
33413;SDS011;60055;41.884;12.534;2024-01-06T08:59:58;9.32;;;3.92;;
33413;SDS011;60055;41.884;12.534;2024-01-06T09:02:23;11.23;;;4.57;;
33413;SDS011;60055;41.884;12.534;2024-01-06T09:04:49;8.88;;;3.95;;
33413;SDS011;60055;41.884;12.534;2024-01-06T09:07:14;7.18;;;4.00;;
33413;SDS011;60055;41.884;12.534;2024-01-06T09:09:42;12.05;;;4.20;;
33413;SDS011;60055;41.884;12.534;2024-01-06T09:12:07;17.23;;;7.32;;
33413;SDS011;60055;41.884;12.534;2024-01-06T09:14:33;11.50;;;5.40;;
33413;SDS011;60055;41.884;12.534;2024-01-06T09:16:59;13.07;;;4.28;;
33413;SDS011;60055;41.884;12.534;2024-01-06T09:19:24;10.95;;;4.05;;
33413;SDS011;60055;41.884;12.534;2024-01-06T09:21:50;10.25;;;4.20;;
33413;SDS011;60055;41.884;12.534;2024-01-06T09:24:15;9.27;;;4.13;;
33413;SDS011;60055;41.884;12.534;2024-01-06T09:26:41;12.70;;;4.10;;
33413;SDS011;60055;41.884;12.534;2024-01-06T09:29:06;12.05;;;4.35;;
33413;SDS011;60055;41.884;12.534;2024-01-06T09:31:31;11.10;;;3.63;;
33413;SDS011;60055;41.884;12.534;2024-01-06T09:34:00;9.98;;;3.60;;
33413;SDS011;60055;41.884;12.534;2024-01-06T09:36:30;8.30;;;3.55;;
33413;SDS011;60055;41.884;12.534;2024-01-06T09:38:56;11.52;;;4.38;;
33413;SDS011;60055;41.884;12.534;2024-01-06T09:41:22;12.88;;;4.53;;
33413;SDS011;60055;41.884;12.534;2024-01-06T09:43:48;14.70;;;6.20;;
33413;SDS011;60055;41.884;12.534;2024-01-06T09:46:18;30.38;;;16.38;;
33413;SDS011;60055;41.884;12.534;2024-01-06T09:48:50;47.35;;;29.15;;
33413;SDS011;60055;41.884;12.534;2024-01-06T09:51:18;20.35;;;10.60;;
33413;SDS011;60055;41.884;12.534;2024-01-06T09:53:47;18.15;;;9.13;;
33413;SDS011;60055;41.884;12.534;2024-01-06T09:56:27;16.02;;;7.65;;
33413;SDS011;60055;41.884;12.534;2024-01-06T09:58:53;13.55;;;6.95;;
33413;SDS011;60055;41.884;12.534;2024-01-06T10:01:20;13.10;;;4.93;;
33413;SDS011;60055;41.884;12.534;2024-01-06T10:03:46;15.15;;;6.90;;
33413;SDS011;60055;41.884;12.534;2024-01-06T10:06:13;17.95;;;7.85;;
33413;SDS011;60055;41.884;12.534;2024-01-06T10:08:39;19.33;;;8.30;;
33413;SDS011;60055;41.884;12.534;2024-01-06T10:11:07;15.52;;;6.82;;
33413;SDS011;60055;41.884;12.534;2024-01-06T10:13:36;11.82;;;4.53;;
33413;SDS011;60055;41.884;12.534;2024-01-06T10:16:05;16.83;;;4.72;;
33413;SDS011;60055;41.884;12.534;2024-01-06T10:18:31;16.60;;;5.57;;
33413;SDS011;60055;41.884;12.534;2024-01-06T10:20:57;9.82;;;4.72;;
33413;SDS011;60055;41.884;12.534;2024-01-06T10:23:23;13.85;;;5.20;;
33413;SDS011;60055;41.884;12.534;2024-01-06T10:25:53;10.38;;;5.70;;
33413;SDS011;60055;41.884;12.534;2024-01-06T10:28:20;13.48;;;5.53;;
33413;SDS011;60055;41.884;12.534;2024-01-06T10:30:47;18.15;;;5.25;;
33413;SDS011;60055;41.884;12.534;2024-01-06T10:33:12;18.27;;;5.18;;
33413;SDS011;60055;41.884;12.534;2024-01-06T10:35:39;14.30;;;4.28;;
33413;SDS011;60055;41.884;12.534;2024-01-06T10:38:04;11.90;;;4.50;;
33413;SDS011;60055;41.884;12.534;2024-01-06T10:40:31;9.88;;;4.00;;
33413;SDS011;60055;41.884;12.534;2024-01-06T10:42:57;12.15;;;4.18;;
33413;SDS011;60055;41.884;12.534;2024-01-06T10:45:23;14.20;;;3.83;;
33413;SDS011;60055;41.884;12.534;2024-01-06T10:47:48;8.57;;;3.40;;
33413;SDS011;60055;41.884;12.534;2024-01-06T10:50:15;11.95;;;3.75;;
33413;SDS011;60055;41.884;12.534;2024-01-06T10:52:42;8.60;;;3.28;;
33413;SDS011;60055;41.884;12.534;2024-01-06T10:55:11;9.23;;;3.40;;
33413;SDS011;60055;41.884;12.534;2024-01-06T10:57:39;8.40;;;2.65;;
33413;SDS011;60055;41.884;12.534;2024-01-06T11:00:09;12.20;;;3.22;;
33413;SDS011;60055;41.884;12.534;2024-01-06T11:02:35;14.45;;;3.30;;
33413;SDS011;60055;41.884;12.534;2024-01-06T11:05:01;7.68;;;3.05;;
33413;SDS011;60055;41.884;12.534;2024-01-06T11:07:27;11.35;;;3.25;;
33413;SDS011;60055;41.884;12.534;2024-01-06T11:10:26;8.82;;;3.58;;
33413;SDS011;60055;41.884;12.534;2024-01-06T11:12:46;9.48;;;3.92;;
33413;SDS011;60055;41.884;12.534;2024-01-06T11:15:41;13.48;;;5.28;;
33413;SDS011;60055;41.884;12.534;2024-01-06T11:18:07;14.75;;;6.57;;
33413;SDS011;60055;41.884;12.534;2024-01-06T11:20:32;16.52;;;5.90;;
33413;SDS011;60055;41.884;12.534;2024-01-06T11:25:48;9.25;;;3.25;;
33413;SDS011;60055;41.884;12.534;2024-01-06T11:28:13;11.15;;;3.40;;
33413;SDS011;60055;41.884;12.534;2024-01-06T11:30:42;11.32;;;3.65;;
33413;SDS011;60055;41.884;12.534;2024-01-06T11:33:08;5.85;;;2.95;;
33413;SDS011;60055;41.884;12.534;2024-01-06T11:35:33;8.65;;;3.20;;
33413;SDS011;60055;41.884;12.534;2024-01-06T11:38:02;9.13;;;3.50;;
33413;SDS011;60055;41.884;12.534;2024-01-06T11:40:32;8.63;;;3.25;;
33413;SDS011;60055;41.884;12.534;2024-01-06T11:43:03;6.00;;;2.88;;
33413;SDS011;60055;41.884;12.534;2024-01-06T11:45:33;6.43;;;2.70;;
33413;SDS011;60055;41.884;12.534;2024-01-06T11:48:06;8.02;;;2.65;;
33413;SDS011;60055;41.884;12.534;2024-01-06T11:50:37;12.02;;;2.97;;
33413;SDS011;60055;41.884;12.534;2024-01-06T11:53:04;7.50;;;2.47;;
33413;SDS011;60055;41.884;12.534;2024-01-06T11:55:30;6.85;;;2.80;;
33413;SDS011;60055;41.884;12.534;2024-01-06T11:57:59;6.75;;;2.65;;
33413;SDS011;60055;41.884;12.534;2024-01-06T12:00:28;5.90;;;2.38;;
33413;SDS011;60055;41.884;12.534;2024-01-06T12:02:57;8.50;;;2.67;;
33413;SDS011;60055;41.884;12.534;2024-01-06T12:05:24;9.10;;;2.97;;
33413;SDS011;60055;41.884;12.534;2024-01-06T12:10:21;7.78;;;2.60;;
33413;SDS011;60055;41.884;12.534;2024-01-06T12:13:04;12.00;;;2.65;;
33413;SDS011;60055;41.884;12.534;2024-01-06T12:15:33;7.88;;;2.42;;
33413;SDS011;60055;41.884;12.534;2024-01-06T12:18:01;9.27;;;2.60;;
33413;SDS011;60055;41.884;12.534;2024-01-06T12:20:28;8.00;;;2.35;;
33413;SDS011;60055;41.884;12.534;2024-01-06T12:22:54;9.18;;;2.72;;
33413;SDS011;60055;41.884;12.534;2024-01-06T12:25:20;9.68;;;2.67;;
33413;SDS011;60055;41.884;12.534;2024-01-06T12:27:47;6.78;;;2.00;;
33413;SDS011;60055;41.884;12.534;2024-01-06T12:30:14;7.68;;;2.50;;
33413;SDS011;60055;41.884;12.534;2024-01-06T12:32:44;7.30;;;2.30;;
33413;SDS011;60055;41.884;12.534;2024-01-06T12:35:10;7.88;;;2.20;;
33413;SDS011;60055;41.884;12.534;2024-01-06T12:37:37;5.72;;;2.38;;
33413;SDS011;60055;41.884;12.534;2024-01-06T12:40:02;5.57;;;2.30;;
33413;SDS011;60055;41.884;12.534;2024-01-06T12:42:28;9.00;;;2.60;;
33413;SDS011;60055;41.884;12.534;2024-01-06T12:44:54;5.47;;;1.92;;
33413;SDS011;60055;41.884;12.534;2024-01-06T12:47:19;6.25;;;2.38;;
33413;SDS011;60055;41.884;12.534;2024-01-06T12:49:45;6.20;;;2.40;;
33413;SDS011;60055;41.884;12.534;2024-01-06T12:52:11;6.15;;;2.10;;
33413;SDS011;60055;41.884;12.534;2024-01-06T12:54:36;8.07;;;2.00;;
33413;SDS011;60055;41.884;12.534;2024-01-06T12:57:02;7.43;;;2.22;;
33413;SDS011;60055;41.884;12.534;2024-01-06T12:59:27;5.03;;;1.88;;
33413;SDS011;60055;41.884;12.534;2024-01-06T13:01:55;8.18;;;2.10;;
33413;SDS011;60055;41.884;12.534;2024-01-06T13:04:20;8.98;;;2.65;;
33413;SDS011;60055;41.884;12.534;2024-01-06T13:06:46;7.32;;;2.30;;
33413;SDS011;60055;41.884;12.534;2024-01-06T13:09:13;6.63;;;2.38;;
33413;SDS011;60055;41.884;12.534;2024-01-06T13:11:41;4.82;;;2.05;;
33413;SDS011;60055;41.884;12.534;2024-01-06T13:14:07;6.13;;;2.25;;
33413;SDS011;60055;41.884;12.534;2024-01-06T13:16:32;6.95;;;3.25;;
33413;SDS011;60055;41.884;12.534;2024-01-06T13:18:58;5.95;;;2.30;;
33413;SDS011;60055;41.884;12.534;2024-01-06T13:21:24;8.40;;;2.25;;
33413;SDS011;60055;41.884;12.534;2024-01-06T13:23:50;7.25;;;2.30;;
33413;SDS011;60055;41.884;12.534;2024-01-06T13:26:15;6.50;;;2.15;;
33413;SDS011;60055;41.884;12.534;2024-01-06T13:28:41;7.05;;;2.60;;
33413;SDS011;60055;41.884;12.534;2024-01-06T13:31:06;5.95;;;2.17;;
33413;SDS011;60055;41.884;12.534;2024-01-06T13:33:32;6.13;;;2.30;;
33413;SDS011;60055;41.884;12.534;2024-01-06T13:35:57;6.88;;;2.65;;
33413;SDS011;60055;41.884;12.534;2024-01-06T13:38:23;8.02;;;2.78;;
33413;SDS011;60055;41.884;12.534;2024-01-06T13:40:51;4.97;;;2.60;;
33413;SDS011;60055;41.884;12.534;2024-01-06T13:43:17;8.93;;;2.88;;
33413;SDS011;60055;41.884;12.534;2024-01-06T13:45:43;6.68;;;2.70;;
33413;SDS011;60055;41.884;12.534;2024-01-06T13:48:12;7.85;;;2.83;;
33413;SDS011;60055;41.884;12.534;2024-01-06T13:50:38;9.15;;;2.70;;
33413;SDS011;60055;41.884;12.534;2024-01-06T13:53:04;6.75;;;2.78;;
33413;SDS011;60055;41.884;12.534;2024-01-06T13:55:31;7.75;;;2.70;;
33413;SDS011;60055;41.884;12.534;2024-01-06T13:57:58;7.82;;;2.85;;
33413;SDS011;60055;41.884;12.534;2024-01-06T14:00:23;6.57;;;2.42;;
33413;SDS011;60055;41.884;12.534;2024-01-06T14:02:50;8.00;;;2.60;;
33413;SDS011;60055;41.884;12.534;2024-01-06T14:05:16;4.88;;;2.65;;
33413;SDS011;60055;41.884;12.534;2024-01-06T14:07:44;7.85;;;3.47;;
33413;SDS011;60055;41.884;12.534;2024-01-06T14:10:13;11.07;;;5.45;;
33413;SDS011;60055;41.884;12.534;2024-01-06T14:12:39;22.00;;;9.10;;
33413;SDS011;60055;41.884;12.534;2024-01-06T14:15:05;17.95;;;8.88;;
33413;SDS011;60055;41.884;12.534;2024-01-06T14:17:34;15.38;;;6.95;;
33413;SDS011;60055;41.884;12.534;2024-01-06T14:20:00;12.80;;;6.72;;
33413;SDS011;60055;41.884;12.534;2024-01-06T14:22:26;11.45;;;4.07;;
33413;SDS011;60055;41.884;12.534;2024-01-06T14:24:52;9.90;;;3.40;;